sensor_id;sensor_type;location;lat;lon;timestamp;P1;durP1;ratioP1;P2;durP2;ratioP2
41952;SDS011;63613;28.200;112.870;2023-02-28T00:01:13;28.08;;;20.40;;
41952;SDS011;63613;28.200;112.870;2023-02-28T00:03:43;27.00;;;19.85;;
41952;SDS011;63613;28.200;112.870;2023-02-28T00:06:10;29.58;;;19.85;;
41952;SDS011;63613;28.200;112.870;2023-02-28T00:08:37;28.75;;;19.23;;
41952;SDS011;63613;28.200;112.870;2023-02-28T00:11:06;24.73;;;19.48;;
41952;SDS011;63613;28.200;112.870;2023-02-28T00:13:35;27.17;;;18.77;;
41952;SDS011;63613;28.200;112.870;2023-02-28T00:16:05;25.42;;;19.40;;
41952;SDS011;63613;28.200;112.870;2023-02-28T00:18:40;27.30;;;19.17;;
41952;SDS011;63613;28.200;112.870;2023-02-28T00:21:07;27.40;;;20.25;;
41952;SDS011;63613;28.200;112.870;2023-02-28T00:23:35;27.60;;;19.08;;
41952;SDS011;63613;28.200;112.870;2023-02-28T00:26:02;26.00;;;19.15;;
41952;SDS011;63613;28.200;112.870;2023-02-28T00:28:29;26.80;;;19.63;;
41952;SDS011;63613;28.200;112.870;2023-02-28T00:31:16;27.13;;;19.90;;
41952;SDS011;63613;28.200;112.870;2023-02-28T00:33:43;31.80;;;21.60;;
41952;SDS011;63613;28.200;112.870;2023-02-28T00:36:10;31.65;;;22.48;;
41952;SDS011;63613;28.200;112.870;2023-02-28T00:38:38;31.60;;;22.02;;
41952;SDS011;63613;28.200;112.870;2023-02-28T00:41:06;27.77;;;19.95;;
41952;SDS011;63613;28.200;112.870;2023-02-28T00:43:34;31.13;;;22.10;;
41952;SDS011;63613;28.200;112.870;2023-02-28T00:46:02;30.45;;;21.42;;
41952;SDS011;63613;28.200;112.870;2023-02-28T00:48:29;29.42;;;20.45;;
41952;SDS011;63613;28.200;112.870;2023-02-28T00:51:16;30.38;;;20.70;;
41952;SDS011;63613;28.200;112.870;2023-02-28T00:53:43;29.20;;;20.42;;
41952;SDS011;63613;28.200;112.870;2023-02-28T00:56:10;30.50;;;20.65;;
41952;SDS011;63613;28.200;112.870;2023-02-28T00:58:57;27.85;;;21.17;;
41952;SDS011;63613;28.200;112.870;2023-02-28T01:01:23;27.48;;;19.73;;
41952;SDS011;63613;28.200;112.870;2023-02-28T01:03:50;27.95;;;20.10;;
41952;SDS011;63613;28.200;112.870;2023-02-28T01:06:17;30.20;;;19.20;;
41952;SDS011;63613;28.200;112.870;2023-02-28T01:08:44;29.63;;;20.50;;
41952;SDS011;63613;28.200;112.870;2023-02-28T01:11:12;25.52;;;18.50;;
41952;SDS011;63613;28.200;112.870;2023-02-28T01:13:40;24.83;;;18.45;;
41952;SDS011;63613;28.200;112.870;2023-02-28T01:16:08;24.27;;;18.67;;
41952;SDS011;63613;28.200;112.870;2023-02-28T01:18:35;22.92;;;17.08;;
41952;SDS011;63613;28.200;112.870;2023-02-28T01:21:03;25.80;;;17.88;;
41952;SDS011;63613;28.200;112.870;2023-02-28T01:23:31;26.77;;;19.02;;
41952;SDS011;63613;28.200;112.870;2023-02-28T01:26:05;27.90;;;19.27;;
41952;SDS011;63613;28.200;112.870;2023-02-28T01:28:34;25.58;;;17.95;;
41952;SDS011;63613;28.200;112.870;2023-02-28T01:31:01;26.67;;;19.45;;
41952;SDS011;63613;28.200;112.870;2023-02-28T01:33:49;26.02;;;18.50;;
41952;SDS011;63613;28.200;112.870;2023-02-28T01:36:20;30.60;;;20.90;;
41952;SDS011;63613;28.200;112.870;2023-02-28T01:38:49;26.83;;;18.92;;
41952;SDS011;63613;28.200;112.870;2023-02-28T01:41:36;22.63;;;18.10;;
41952;SDS011;63613;28.200;112.870;2023-02-28T01:44:07;26.85;;;19.63;;
41952;SDS011;63613;28.200;112.870;2023-02-28T01:46:52;25.33;;;18.48;;
41952;SDS011;63613;28.200;112.870;2023-02-28T01:49:19;24.67;;;18.23;;
41952;SDS011;63613;28.200;112.870;2023-02-28T01:51:50;24.85;;;17.88;;
41952;SDS011;63613;28.200;112.870;2023-02-28T01:57:01;26.55;;;19.08;;
41952;SDS011;63613;28.200;112.870;2023-02-28T01:59:40;26.48;;;18.92;;
41952;SDS011;63613;28.200;112.870;2023-02-28T02:02:12;25.80;;;18.52;;
41952;SDS011;63613;28.200;112.870;2023-02-28T02:04:41;27.63;;;17.73;;
41952;SDS011;63613;28.200;112.870;2023-02-28T02:07:36;28.70;;;19.42;;
41952;SDS011;63613;28.200;112.870;2023-02-28T02:13:00;27.80;;;19.88;;
41952;SDS011;63613;28.200;112.870;2023-02-28T02:15:42;26.50;;;19.38;;
41952;SDS011;63613;28.200;112.870;2023-02-28T02:18:29;25.15;;;18.23;;
41952;SDS011;63613;28.200;112.870;2023-02-28T02:21:09;25.48;;;17.70;;
41952;SDS011;63613;28.200;112.870;2023-02-28T02:27:03;25.13;;;17.77;;
41952;SDS011;63613;28.200;112.870;2023-02-28T02:41:29;23.88;;;17.08;;
41952;SDS011;63613;28.200;112.870;2023-02-28T02:44:04;24.42;;;16.15;;
41952;SDS011;63613;28.200;112.870;2023-02-28T02:46:42;23.95;;;16.52;;
41952;SDS011;63613;28.200;112.870;2023-02-28T02:52:01;23.02;;;16.23;;
41952;SDS011;63613;28.200;112.870;2023-02-28T02:54:35;22.85;;;16.63;;
41952;SDS011;63613;28.200;112.870;2023-02-28T02:57:06;23.90;;;17.58;;
41952;SDS011;63613;28.200;112.870;2023-02-28T02:59:47;22.67;;;16.35;;
41952;SDS011;63613;28.200;112.870;2023-02-28T03:02:16;22.38;;;17.77;;
41952;SDS011;63613;28.200;112.870;2023-02-28T03:04:51;23.15;;;17.23;;
41952;SDS011;63613;28.200;112.870;2023-02-28T03:07:26;25.23;;;18.30;;
41952;SDS011;63613;28.200;112.870;2023-02-28T03:09:54;27.55;;;18.35;;
41952;SDS011;63613;28.200;112.870;2023-02-28T03:12:23;22.90;;;17.05;;
41952;SDS011;63613;28.200;112.870;2023-02-28T03:15:11;24.63;;;18.77;;
41952;SDS011;63613;28.200;112.870;2023-02-28T03:18:01;26.25;;;18.02;;
41952;SDS011;63613;28.200;112.870;2023-02-28T03:23:17;25.63;;;18.52;;
41952;SDS011;63613;28.200;112.870;2023-02-28T03:28:41;29.90;;;19.13;;
41952;SDS011;63613;28.200;112.870;2023-02-28T03:34:17;25.20;;;17.42;;
41952;SDS011;63613;28.200;112.870;2023-02-28T03:36:53;27.27;;;18.88;;
41952;SDS011;63613;28.200;112.870;2023-02-28T03:39:24;25.98;;;17.92;;
41952;SDS011;63613;28.200;112.870;2023-02-28T03:42:26;25.58;;;18.20;;
41952;SDS011;63613;28.200;112.870;2023-02-28T03:44:54;25.90;;;17.13;;
41952;SDS011;63613;28.200;112.870;2023-02-28T03:50:06;23.25;;;17.33;;
41952;SDS011;63613;28.200;112.870;2023-02-28T03:52:42;26.95;;;18.23;;
41952;SDS011;63613;28.200;112.870;2023-02-28T03:55:28;24.83;;;18.08;;
41952;SDS011;63613;28.200;112.870;2023-02-28T03:58:11;25.33;;;17.88;;
41952;SDS011;63613;28.200;112.870;2023-02-28T04:00:59;29.67;;;19.33;;
41952;SDS011;63613;28.200;112.870;2023-02-28T04:03:37;27.35;;;18.17;;
41952;SDS011;63613;28.200;112.870;2023-02-28T04:06:07;22.38;;;17.50;;
41952;SDS011;63613;28.200;112.870;2023-02-28T04:08:40;26.75;;;19.85;;
41952;SDS011;63613;28.200;112.870;2023-02-28T04:11:11;25.02;;;18.33;;
41952;SDS011;63613;28.200;112.870;2023-02-28T04:13:47;26.08;;;18.27;;
41952;SDS011;63613;28.200;112.870;2023-02-28T04:16:14;27.33;;;19.83;;
41952;SDS011;63613;28.200;112.870;2023-02-28T04:18:41;25.00;;;18.42;;
41952;SDS011;63613;28.200;112.870;2023-02-28T04:21:09;27.13;;;18.95;;
41952;SDS011;63613;28.200;112.870;2023-02-28T04:23:37;29.98;;;19.52;;
41952;SDS011;63613;28.200;112.870;2023-02-28T04:26:04;29.35;;;18.92;;
41952;SDS011;63613;28.200;112.870;2023-02-28T04:28:31;36.25;;;26.75;;
41952;SDS011;63613;28.200;112.870;2023-02-28T04:31:00;33.22;;;22.58;;
41952;SDS011;63613;28.200;112.870;2023-02-28T04:33:31;33.08;;;21.30;;
41952;SDS011;63613;28.200;112.870;2023-02-28T04:35:59;35.25;;;22.90;;
41952;SDS011;63613;28.200;112.870;2023-02-28T04:38:36;36.75;;;24.02;;
41952;SDS011;63613;28.200;112.870;2023-02-28T04:41:05;39.85;;;26.48;;
41952;SDS011;63613;28.200;112.870;2023-02-28T04:43:34;35.80;;;25.25;;
41952;SDS011;63613;28.200;112.870;2023-02-28T04:46:02;36.92;;;24.35;;
41952;SDS011;63613;28.200;112.870;2023-02-28T04:48:48;40.65;;;24.25;;
41952;SDS011;63613;28.200;112.870;2023-02-28T04:51:16;34.78;;;24.13;;
41952;SDS011;63613;28.200;112.870;2023-02-28T04:53:44;36.30;;;23.48;;
41952;SDS011;63613;28.200;112.870;2023-02-28T04:56:13;42.38;;;25.58;;
41952;SDS011;63613;28.200;112.870;2023-02-28T04:58:43;37.75;;;25.63;;
41952;SDS011;63613;28.200;112.870;2023-02-28T05:03:44;36.33;;;24.80;;
41952;SDS011;63613;28.200;112.870;2023-02-28T05:06:12;35.53;;;25.23;;
41952;SDS011;63613;28.200;112.870;2023-02-28T05:08:40;37.28;;;24.85;;
41952;SDS011;63613;28.200;112.870;2023-02-28T05:11:12;36.47;;;25.85;;
41952;SDS011;63613;28.200;112.870;2023-02-28T05:13:48;36.85;;;24.80;;
41952;SDS011;63613;28.200;112.870;2023-02-28T05:16:16;35.45;;;23.67;;
41952;SDS011;63613;28.200;112.870;2023-02-28T05:18:44;34.25;;;24.20;;
41952;SDS011;63613;28.200;112.870;2023-02-28T05:21:22;32.92;;;24.45;;
41952;SDS011;63613;28.200;112.870;2023-02-28T05:23:50;34.28;;;23.38;;
41952;SDS011;63613;28.200;112.870;2023-02-28T05:26:19;34.78;;;24.42;;
41952;SDS011;63613;28.200;112.870;2023-02-28T05:28:46;35.33;;;23.10;;
41952;SDS011;63613;28.200;112.870;2023-02-28T05:31:13;31.60;;;23.20;;
41952;SDS011;63613;28.200;112.870;2023-02-28T05:33:41;30.85;;;22.70;;
41952;SDS011;63613;28.200;112.870;2023-02-28T05:36:29;32.03;;;23.20;;
41952;SDS011;63613;28.200;112.870;2023-02-28T05:38:59;32.25;;;22.75;;
41952;SDS011;63613;28.200;112.870;2023-02-28T05:41:26;32.85;;;22.27;;
41952;SDS011;63613;28.200;112.870;2023-02-28T05:43:53;32.47;;;23.15;;
41952;SDS011;63613;28.200;112.870;2023-02-28T05:46:20;31.92;;;21.60;;
41952;SDS011;63613;28.200;112.870;2023-02-28T05:48:48;29.02;;;21.85;;
41952;SDS011;63613;28.200;112.870;2023-02-28T05:51:15;31.35;;;23.90;;
41952;SDS011;63613;28.200;112.870;2023-02-28T05:53:43;32.92;;;23.73;;
41952;SDS011;63613;28.200;112.870;2023-02-28T05:56:11;31.77;;;23.25;;
41952;SDS011;63613;28.200;112.870;2023-02-28T05:58:38;33.35;;;24.85;;
41952;SDS011;63613;28.200;112.870;2023-02-28T06:04:01;31.48;;;23.35;;
41952;SDS011;63613;28.200;112.870;2023-02-28T06:06:31;36.63;;;24.60;;
41952;SDS011;63613;28.200;112.870;2023-02-28T06:08:59;34.78;;;24.45;;
41952;SDS011;63613;28.200;112.870;2023-02-28T06:11:27;32.45;;;23.55;;
41952;SDS011;63613;28.200;112.870;2023-02-28T06:14:00;33.75;;;24.85;;
41952;SDS011;63613;28.200;112.870;2023-02-28T06:16:28;36.38;;;25.10;;
41952;SDS011;63613;28.200;112.870;2023-02-28T06:18:57;36.28;;;25.33;;
41952;SDS011;63613;28.200;112.870;2023-02-28T06:21:26;38.58;;;24.45;;
41952;SDS011;63613;28.200;112.870;2023-02-28T06:23:53;32.35;;;24.30;;
41952;SDS011;63613;28.200;112.870;2023-02-28T06:26:21;33.17;;;23.52;;
41952;SDS011;63613;28.200;112.870;2023-02-28T06:28:48;32.95;;;22.63;;
41952;SDS011;63613;28.200;112.870;2023-02-28T06:31:16;34.47;;;23.85;;
41952;SDS011;63613;28.200;112.870;2023-02-28T06:33:44;31.17;;;23.05;;
41952;SDS011;63613;28.200;112.870;2023-02-28T06:36:12;27.75;;;21.13;;
41952;SDS011;63613;28.200;112.870;2023-02-28T06:38:59;30.27;;;23.27;;
41952;SDS011;63613;28.200;112.870;2023-02-28T06:41:48;32.70;;;22.45;;
41952;SDS011;63613;28.200;112.870;2023-02-28T06:44:17;30.83;;;22.30;;
41952;SDS011;63613;28.200;112.870;2023-02-28T06:46:44;28.38;;;22.42;;
41952;SDS011;63613;28.200;112.870;2023-02-28T06:49:14;29.40;;;21.13;;
41952;SDS011;63613;28.200;112.870;2023-02-28T06:51:43;28.02;;;21.60;;
41952;SDS011;63613;28.200;112.870;2023-02-28T06:54:10;28.55;;;20.65;;
41952;SDS011;63613;28.200;112.870;2023-02-28T06:56:38;27.20;;;20.10;;
41952;SDS011;63613;28.200;112.870;2023-02-28T06:59:05;28.88;;;21.90;;
41952;SDS011;63613;28.200;112.870;2023-02-28T07:01:32;29.67;;;20.45;;
41952;SDS011;63613;28.200;112.870;2023-02-28T07:04:00;30.27;;;21.38;;
41952;SDS011;63613;28.200;112.870;2023-02-28T07:06:27;28.73;;;21.65;;
41952;SDS011;63613;28.200;112.870;2023-02-28T07:08:54;28.58;;;21.67;;
41952;SDS011;63613;28.200;112.870;2023-02-28T07:11:21;31.13;;;22.45;;
41952;SDS011;63613;28.200;112.870;2023-02-28T07:13:51;26.52;;;20.85;;
41952;SDS011;63613;28.200;112.870;2023-02-28T07:16:21;29.23;;;22.05;;
41952;SDS011;63613;28.200;112.870;2023-02-28T07:19:09;29.70;;;22.30;;
41952;SDS011;63613;28.200;112.870;2023-02-28T07:21:36;28.05;;;20.92;;
41952;SDS011;63613;28.200;112.870;2023-02-28T07:24:03;28.73;;;20.90;;
41952;SDS011;63613;28.200;112.870;2023-02-28T07:26:30;29.13;;;22.15;;
41952;SDS011;63613;28.200;112.870;2023-02-28T07:29:16;30.10;;;21.50;;
41952;SDS011;63613;28.200;112.870;2023-02-28T07:31:43;28.02;;;20.83;;
41952;SDS011;63613;28.200;112.870;2023-02-28T07:34:12;29.58;;;21.33;;
41952;SDS011;63613;28.200;112.870;2023-02-28T07:36:39;27.20;;;20.30;;
41952;SDS011;63613;28.200;112.870;2023-02-28T07:39:06;28.38;;;20.63;;
41952;SDS011;63613;28.200;112.870;2023-02-28T07:41:34;28.27;;;19.80;;
41952;SDS011;63613;28.200;112.870;2023-02-28T07:44:11;25.42;;;19.45;;
41952;SDS011;63613;28.200;112.870;2023-02-28T07:46:38;25.98;;;19.50;;
41952;SDS011;63613;28.200;112.870;2023-02-28T07:49:05;27.23;;;19.92;;
41952;SDS011;63613;28.200;112.870;2023-02-28T07:51:32;29.90;;;21.40;;
41952;SDS011;63613;28.200;112.870;2023-02-28T07:53:59;30.38;;;21.25;;
41952;SDS011;63613;28.200;112.870;2023-02-28T07:56:27;28.30;;;19.33;;
41952;SDS011;63613;28.200;112.870;2023-02-28T07:58:54;26.98;;;19.83;;
41952;SDS011;63613;28.200;112.870;2023-02-28T08:01:21;25.65;;;19.60;;
41952;SDS011;63613;28.200;112.870;2023-02-28T08:03:48;25.33;;;18.23;;
41952;SDS011;63613;28.200;112.870;2023-02-28T08:06:19;24.75;;;19.05;;
41952;SDS011;63613;28.200;112.870;2023-02-28T08:08:48;22.67;;;18.40;;
41952;SDS011;63613;28.200;112.870;2023-02-28T08:11:15;25.80;;;18.33;;
41952;SDS011;63613;28.200;112.870;2023-02-28T08:13:43;22.48;;;17.67;;
41952;SDS011;63613;28.200;112.870;2023-02-28T08:16:11;24.92;;;18.75;;
41952;SDS011;63613;28.200;112.870;2023-02-28T08:18:48;23.75;;;17.75;;
41952;SDS011;63613;28.200;112.870;2023-02-28T08:21:16;20.45;;;16.73;;
41952;SDS011;63613;28.200;112.870;2023-02-28T08:23:43;24.05;;;16.40;;
41952;SDS011;63613;28.200;112.870;2023-02-28T08:26:12;22.92;;;17.50;;
41952;SDS011;63613;28.200;112.870;2023-02-28T08:28:41;22.60;;;18.33;;
41952;SDS011;63613;28.200;112.870;2023-02-28T08:31:10;21.35;;;16.95;;
41952;SDS011;63613;28.200;112.870;2023-02-28T08:33:39;18.90;;;15.52;;
41952;SDS011;63613;28.200;112.870;2023-02-28T08:36:26;20.83;;;15.73;;
41952;SDS011;63613;28.200;112.870;2023-02-28T08:38:56;22.75;;;16.17;;
41952;SDS011;63613;28.200;112.870;2023-02-28T08:41:24;20.80;;;15.75;;
41952;SDS011;63613;28.200;112.870;2023-02-28T08:43:52;21.05;;;15.05;;
41952;SDS011;63613;28.200;112.870;2023-02-28T08:46:19;22.52;;;15.60;;
41952;SDS011;63613;28.200;112.870;2023-02-28T08:48:46;21.50;;;15.75;;
41952;SDS011;63613;28.200;112.870;2023-02-28T08:51:38;24.63;;;15.68;;
41952;SDS011;63613;28.200;112.870;2023-02-28T08:54:04;19.52;;;14.32;;
41952;SDS011;63613;28.200;112.870;2023-02-28T08:56:32;19.67;;;14.20;;
41952;SDS011;63613;28.200;112.870;2023-02-28T08:58:59;17.95;;;13.52;;
41952;SDS011;63613;28.200;112.870;2023-02-28T09:01:27;19.85;;;13.55;;
41952;SDS011;63613;28.200;112.870;2023-02-28T09:03:55;19.02;;;13.52;;
41952;SDS011;63613;28.200;112.870;2023-02-28T09:06:23;20.17;;;14.18;;
41952;SDS011;63613;28.200;112.870;2023-02-28T09:08:52;19.05;;;13.95;;
41952;SDS011;63613;28.200;112.870;2023-02-28T09:11:19;18.25;;;13.05;;
41952;SDS011;63613;28.200;112.870;2023-02-28T09:13:46;19.55;;;13.40;;
41952;SDS011;63613;28.200;112.870;2023-02-28T09:16:13;16.95;;;12.90;;
41952;SDS011;63613;28.200;112.870;2023-02-28T09:18:42;17.83;;;13.27;;
41952;SDS011;63613;28.200;112.870;2023-02-28T09:21:11;15.00;;;11.73;;
41952;SDS011;63613;28.200;112.870;2023-02-28T09:23:43;17.90;;;13.10;;
41952;SDS011;63613;28.200;112.870;2023-02-28T09:26:15;16.63;;;12.00;;
41952;SDS011;63613;28.200;112.870;2023-02-28T09:28:43;16.83;;;12.30;;
41952;SDS011;63613;28.200;112.870;2023-02-28T09:31:15;16.25;;;12.57;;
41952;SDS011;63613;28.200;112.870;2023-02-28T09:33:46;19.65;;;12.68;;
41952;SDS011;63613;28.200;112.870;2023-02-28T09:36:37;16.23;;;12.07;;
41952;SDS011;63613;28.200;112.870;2023-02-28T09:39:04;15.35;;;12.45;;
41952;SDS011;63613;28.200;112.870;2023-02-28T09:41:42;18.02;;;12.25;;
41952;SDS011;63613;28.200;112.870;2023-02-28T09:44:23;20.00;;;13.43;;
41952;SDS011;63613;28.200;112.870;2023-02-28T09:47:18;19.75;;;13.18;;
41952;SDS011;63613;28.200;112.870;2023-02-28T09:50:00;18.42;;;12.88;;
41952;SDS011;63613;28.200;112.870;2023-02-28T09:52:32;16.85;;;12.90;;
41952;SDS011;63613;28.200;112.870;2023-02-28T09:55:04;17.85;;;12.52;;
41952;SDS011;63613;28.200;112.870;2023-02-28T09:57:41;18.75;;;12.98;;
41952;SDS011;63613;28.200;112.870;2023-02-28T10:00:19;17.38;;;13.18;;
41952;SDS011;63613;28.200;112.870;2023-02-28T10:02:50;18.80;;;13.48;;
41952;SDS011;63613;28.200;112.870;2023-02-28T10:10:42;22.23;;;14.80;;
41952;SDS011;63613;28.200;112.870;2023-02-28T10:16:03;23.38;;;14.75;;
41952;SDS011;63613;28.200;112.870;2023-02-28T10:18:52;18.63;;;13.30;;
41952;SDS011;63613;28.200;112.870;2023-02-28T10:21:43;20.98;;;14.07;;
41952;SDS011;63613;28.200;112.870;2023-02-28T10:24:35;20.88;;;15.60;;
41952;SDS011;63613;28.200;112.870;2023-02-28T10:27:16;24.02;;;14.95;;
41952;SDS011;63613;28.200;112.870;2023-02-28T10:29:54;23.50;;;15.27;;
41952;SDS011;63613;28.200;112.870;2023-02-28T10:32:49;19.70;;;14.70;;
41952;SDS011;63613;28.200;112.870;2023-02-28T10:35:17;24.52;;;15.60;;
41952;SDS011;63613;28.200;112.870;2023-02-28T10:37:47;20.15;;;14.00;;
41952;SDS011;63613;28.200;112.870;2023-02-28T10:42:59;22.73;;;15.98;;
41952;SDS011;63613;28.200;112.870;2023-02-28T10:45:40;22.83;;;15.10;;
41952;SDS011;63613;28.200;112.870;2023-02-28T10:53:28;22.02;;;15.00;;
41952;SDS011;63613;28.200;112.870;2023-02-28T10:55:59;26.02;;;14.80;;
41952;SDS011;63613;28.200;112.870;2023-02-28T11:09:53;27.80;;;17.60;;
41952;SDS011;63613;28.200;112.870;2023-02-28T11:12:29;24.17;;;15.38;;
41952;SDS011;63613;28.200;112.870;2023-02-28T11:20:58;32.17;;;18.75;;
41952;SDS011;63613;28.200;112.870;2023-02-28T11:23:28;31.70;;;18.75;;
41952;SDS011;63613;28.200;112.870;2023-02-28T11:25:59;28.85;;;17.88;;
41952;SDS011;63613;28.200;112.870;2023-02-28T11:28:29;32.30;;;20.10;;
41952;SDS011;63613;28.200;112.870;2023-02-28T11:33:49;38.38;;;22.25;;
41952;SDS011;63613;28.200;112.870;2023-02-28T11:36:31;36.47;;;21.10;;
41952;SDS011;63613;28.200;112.870;2023-02-28T11:39:08;37.13;;;20.50;;
41952;SDS011;63613;28.200;112.870;2023-02-28T11:41:40;41.60;;;22.55;;
41952;SDS011;63613;28.200;112.870;2023-02-28T11:44:26;44.60;;;23.63;;
41952;SDS011;63613;28.200;112.870;2023-02-28T11:47:23;45.83;;;25.67;;
41952;SDS011;63613;28.200;112.870;2023-02-28T11:53:00;41.83;;;24.90;;
41952;SDS011;63613;28.200;112.870;2023-02-28T11:55:52;47.00;;;25.65;;
41952;SDS011;63613;28.200;112.870;2023-02-28T11:58:33;42.75;;;24.58;;
41952;SDS011;63613;28.200;112.870;2023-02-28T12:03:58;40.17;;;23.63;;
41952;SDS011;63613;28.200;112.870;2023-02-28T12:06:45;50.05;;;25.60;;
41952;SDS011;63613;28.200;112.870;2023-02-28T12:12:32;44.88;;;24.90;;
41952;SDS011;63613;28.200;112.870;2023-02-28T12:15:24;46.03;;;25.85;;
41952;SDS011;63613;28.200;112.870;2023-02-28T12:21:25;48.83;;;26.52;;
41952;SDS011;63613;28.200;112.870;2023-02-28T12:27:03;45.25;;;24.33;;
41952;SDS011;63613;28.200;112.870;2023-02-28T12:29:42;43.25;;;24.88;;
41952;SDS011;63613;28.200;112.870;2023-02-28T12:35:14;43.25;;;25.52;;
41952;SDS011;63613;28.200;112.870;2023-02-28T12:40:21;43.28;;;24.52;;
41952;SDS011;63613;28.200;112.870;2023-02-28T12:42:52;45.60;;;25.75;;
41952;SDS011;63613;28.200;112.870;2023-02-28T12:45:39;45.72;;;24.40;;
41952;SDS011;63613;28.200;112.870;2023-02-28T12:48:11;44.03;;;24.67;;
41952;SDS011;63613;28.200;112.870;2023-02-28T12:50:49;40.75;;;23.60;;
41952;SDS011;63613;28.200;112.870;2023-02-28T13:08:09;48.42;;;25.70;;
41952;SDS011;63613;28.200;112.870;2023-02-28T13:10:56;44.15;;;23.42;;
41952;SDS011;63613;28.200;112.870;2023-02-28T13:13:24;41.53;;;23.52;;
41952;SDS011;63613;28.200;112.870;2023-02-28T13:18:32;38.00;;;23.50;;
41952;SDS011;63613;28.200;112.870;2023-02-28T13:21:10;42.47;;;23.27;;
41952;SDS011;63613;28.200;112.870;2023-02-28T13:34:39;37.70;;;20.88;;
41952;SDS011;63613;28.200;112.870;2023-02-28T13:39:52;44.58;;;22.52;;
41952;SDS011;63613;28.200;112.870;2023-02-28T13:47:39;39.50;;;21.02;;
41952;SDS011;63613;28.200;112.870;2023-02-28T13:50:33;37.40;;;21.60;;
41952;SDS011;63613;28.200;112.870;2023-02-28T13:59:02;36.85;;;20.48;;
41952;SDS011;63613;28.200;112.870;2023-02-28T14:07:04;34.92;;;20.23;;
41952;SDS011;63613;28.200;112.870;2023-02-28T14:15:02;41.35;;;20.55;;
41952;SDS011;63613;28.200;112.870;2023-02-28T14:17:39;34.78;;;19.63;;
41952;SDS011;63613;28.200;112.870;2023-02-28T14:20:13;34.80;;;18.42;;
41952;SDS011;63613;28.200;112.870;2023-02-28T14:22:50;39.53;;;19.38;;
41952;SDS011;63613;28.200;112.870;2023-02-28T14:31:11;34.47;;;19.38;;
41952;SDS011;63613;28.200;112.870;2023-02-28T14:36:49;32.78;;;19.10;;
41952;SDS011;63613;28.200;112.870;2023-02-28T14:39:24;30.05;;;18.95;;
41952;SDS011;63613;28.200;112.870;2023-02-28T14:41:56;29.08;;;18.33;;
41952;SDS011;63613;28.200;112.870;2023-02-28T14:44:30;30.30;;;19.38;;
41952;SDS011;63613;28.200;112.870;2023-02-28T14:47:01;30.92;;;18.60;;
41952;SDS011;63613;28.200;112.870;2023-02-28T14:49:36;29.27;;;17.58;;
41952;SDS011;63613;28.200;112.870;2023-02-28T14:52:19;27.73;;;17.63;;
41952;SDS011;63613;28.200;112.870;2023-02-28T14:54:55;29.73;;;18.02;;
41952;SDS011;63613;28.200;112.870;2023-02-28T14:57:27;30.67;;;17.98;;
41952;SDS011;63613;28.200;112.870;2023-02-28T15:02:58;31.67;;;18.30;;
41952;SDS011;63613;28.200;112.870;2023-02-28T15:05:30;30.70;;;17.92;;
41952;SDS011;63613;28.200;112.870;2023-02-28T15:08:03;29.42;;;17.35;;
41952;SDS011;63613;28.200;112.870;2023-02-28T15:10:42;30.40;;;18.27;;
41952;SDS011;63613;28.200;112.870;2023-02-28T15:13:38;27.65;;;16.48;;
41952;SDS011;63613;28.200;112.870;2023-02-28T15:16:12;27.48;;;16.00;;
41952;SDS011;63613;28.200;112.870;2023-02-28T15:21:36;28.77;;;17.17;;
41952;SDS011;63613;28.200;112.870;2023-02-28T15:26:50;28.02;;;17.65;;
41952;SDS011;63613;28.200;112.870;2023-02-28T15:29:23;26.42;;;16.85;;
41952;SDS011;63613;28.200;112.870;2023-02-28T15:34:42;31.38;;;17.27;;
41952;SDS011;63613;28.200;112.870;2023-02-28T15:37:30;30.30;;;17.10;;
41952;SDS011;63613;28.200;112.870;2023-02-28T15:40:14;26.80;;;16.48;;
41952;SDS011;63613;28.200;112.870;2023-02-28T15:42:41;26.30;;;17.02;;
41952;SDS011;63613;28.200;112.870;2023-02-28T15:45:26;28.10;;;16.75;;
41952;SDS011;63613;28.200;112.870;2023-02-28T15:47:55;29.52;;;17.25;;
41952;SDS011;63613;28.200;112.870;2023-02-28T15:50:24;27.35;;;17.27;;
41952;SDS011;63613;28.200;112.870;2023-02-28T15:52:54;30.25;;;16.75;;
41952;SDS011;63613;28.200;112.870;2023-02-28T15:55:22;26.25;;;17.70;;
41952;SDS011;63613;28.200;112.870;2023-02-28T15:57:53;26.15;;;17.20;;
41952;SDS011;63613;28.200;112.870;2023-02-28T16:00:26;26.55;;;17.25;;
41952;SDS011;63613;28.200;112.870;2023-02-28T16:02:54;26.25;;;17.85;;
41952;SDS011;63613;28.200;112.870;2023-02-28T16:05:28;27.25;;;18.00;;
41952;SDS011;63613;28.200;112.870;2023-02-28T16:07:58;30.17;;;18.95;;
41952;SDS011;63613;28.200;112.870;2023-02-28T16:10:38;27.75;;;16.75;;
41952;SDS011;63613;28.200;112.870;2023-02-28T16:13:08;27.30;;;17.98;;
41952;SDS011;63613;28.200;112.870;2023-02-28T16:15:58;28.10;;;18.15;;
41952;SDS011;63613;28.200;112.870;2023-02-28T16:18:26;27.73;;;18.02;;
41952;SDS011;63613;28.200;112.870;2023-02-28T16:20:55;26.80;;;18.48;;
41952;SDS011;63613;28.200;112.870;2023-02-28T16:23:21;27.55;;;17.83;;
41952;SDS011;63613;28.200;112.870;2023-02-28T16:25:48;27.27;;;17.35;;
41952;SDS011;63613;28.200;112.870;2023-02-28T16:28:18;26.00;;;17.92;;
41952;SDS011;63613;28.200;112.870;2023-02-28T16:31:11;23.75;;;17.20;;
41952;SDS011;63613;28.200;112.870;2023-02-28T16:33:42;27.00;;;18.23;;
41952;SDS011;63613;28.200;112.870;2023-02-28T16:36:28;25.13;;;16.73;;
41952;SDS011;63613;28.200;112.870;2023-02-28T16:38:55;24.02;;;17.92;;
41952;SDS011;63613;28.200;112.870;2023-02-28T16:41:24;22.42;;;16.95;;
41952;SDS011;63613;28.200;112.870;2023-02-28T16:43:53;26.40;;;17.70;;
41952;SDS011;63613;28.200;112.870;2023-02-28T16:46:24;24.58;;;17.33;;
41952;SDS011;63613;28.200;112.870;2023-02-28T16:49:00;24.80;;;16.55;;
41952;SDS011;63613;28.200;112.870;2023-02-28T16:51:30;26.05;;;17.52;;
41952;SDS011;63613;28.200;112.870;2023-02-28T16:54:00;23.90;;;16.45;;
41952;SDS011;63613;28.200;112.870;2023-02-28T16:56:26;27.27;;;17.20;;
41952;SDS011;63613;28.200;112.870;2023-02-28T16:58:54;24.58;;;16.17;;
41952;SDS011;63613;28.200;112.870;2023-02-28T17:01:25;25.05;;;17.00;;
41952;SDS011;63613;28.200;112.870;2023-02-28T17:03:54;25.15;;;16.67;;
41952;SDS011;63613;28.200;112.870;2023-02-28T17:06:27;25.50;;;16.58;;
41952;SDS011;63613;28.200;112.870;2023-02-28T17:08:57;23.67;;;16.77;;
41952;SDS011;63613;28.200;112.870;2023-02-28T17:11:30;23.30;;;16.83;;
41952;SDS011;63613;28.200;112.870;2023-02-28T17:13:58;24.33;;;16.27;;
41952;SDS011;63613;28.200;112.870;2023-02-28T17:16:31;23.63;;;15.93;;
41952;SDS011;63613;28.200;112.870;2023-02-28T17:19:12;24.63;;;16.77;;